createdAt,value
2022-09-28T00:00:12.513Z,2.60
2022-09-28T00:02:45.277Z,2.40
2022-09-28T00:05:15.492Z,1.97
2022-09-28T00:07:46.961Z,2.50
2022-09-28T00:10:17.260Z,2.70
2022-09-28T00:12:47.252Z,2.67
2022-09-28T00:15:17.535Z,2.30
2022-09-28T00:17:50.644Z,2.80
2022-09-28T00:20:23.102Z,2.70
2022-09-28T00:22:53.099Z,2.67
2022-09-28T00:25:25.043Z,3.20
2022-09-28T00:27:55.092Z,3.30
2022-09-28T00:30:25.289Z,2.43
2022-09-28T00:32:58.516Z,2.90
2022-09-28T00:35:28.563Z,2.70
2022-09-28T00:37:58.505Z,2.33
2022-09-28T00:40:28.714Z,2.40
2022-09-28T00:42:58.737Z,2.77
2022-09-28T00:45:29.589Z,2.83
2022-09-28T00:48:02.849Z,2.63
2022-09-28T00:50:38.187Z,2.30
2022-09-28T00:53:16.279Z,3.63
2022-09-28T00:55:51.266Z,2.90
2022-09-28T00:58:27.914Z,2.27
2022-09-28T01:01:00.844Z,2.93
2022-09-28T01:03:35.289Z,3.13
2022-09-28T01:06:09.593Z,2.50
2022-09-28T01:08:44.609Z,2.47
2022-09-28T01:11:15.711Z,2.77
2022-09-28T01:13:47.381Z,2.97
2022-09-28T01:16:31.476Z,2.53
2022-09-28T01:19:44.761Z,2.77
2022-09-28T01:22:33.555Z,2.80
2022-09-28T01:25:13.526Z,2.47
2022-09-28T01:27:54.072Z,2.83
2022-09-28T01:30:25.327Z,2.67
2022-09-28T01:33:06.463Z,3.40
2022-09-28T01:35:44.895Z,2.60
2022-09-28T01:38:20.347Z,2.60
2022-09-28T01:40:53.003Z,2.50
2022-09-28T01:43:30.286Z,2.70
2022-09-28T01:46:09.709Z,2.67
2022-09-28T01:48:48.300Z,2.23
2022-09-28T01:51:31.167Z,2.20
2022-09-28T01:54:09.026Z,2.00
2022-09-28T01:56:46.037Z,4.00
2022-09-28T01:59:24.290Z,1.87
2022-09-28T02:02:01.097Z,1.80
2022-09-28T02:04:39.604Z,2.40
2022-09-28T02:07:15.025Z,2.20
2022-09-28T02:09:52.753Z,1.73
2022-09-28T02:12:34.176Z,2.17
2022-09-28T02:15:19.254Z,1.80
2022-09-28T02:17:50.318Z,1.83
2022-09-28T02:20:21.225Z,2.30
2022-09-28T02:22:55.785Z,2.30
2022-09-28T02:25:33.730Z,2.07
2022-09-28T02:28:07.729Z,2.17
2022-09-28T02:30:43.826Z,2.93
2022-09-28T02:33:21.551Z,1.83
2022-09-28T02:35:52.318Z,2.40
2022-09-28T02:38:24.409Z,2.27
2022-09-28T02:41:07.365Z,2.30
2022-09-28T02:43:55.030Z,2.43
2022-09-28T02:46:38.566Z,2.13
2022-09-28T02:49:33.784Z,2.90
2022-09-28T02:52:32.071Z,3.10
2022-09-28T02:55:35.327Z,2.60
2022-09-28T02:58:22.078Z,2.10
2022-09-28T03:01:05.826Z,2.40
2022-09-28T03:03:51.114Z,2.53
2022-09-28T03:06:33.306Z,3.33
2022-09-28T03:09:11.749Z,2.77
2022-09-28T03:11:50.341Z,2.47
2022-09-28T03:14:21.402Z,2.57
2022-09-28T03:16:57.897Z,2.50
2022-09-28T03:19:36.849Z,2.80
2022-09-28T03:22:08.115Z,1.90
2022-09-28T03:24:38.187Z,2.10
2022-09-28T03:27:08.157Z,2.73
2022-09-28T03:29:38.385Z,2.37
2022-09-28T03:32:10.147Z,2.67
2022-09-28T03:34:42.749Z,2.60
2022-09-28T03:37:13.150Z,1.90
2022-09-28T03:39:43.273Z,2.60
2022-09-28T03:42:13.272Z,2.10
2022-09-28T03:44:47.505Z,2.30
2022-09-28T03:47:18.111Z,2.00
2022-09-28T03:49:50.818Z,1.77
2022-09-28T03:52:20.843Z,2.03
2022-09-28T03:54:50.785Z,2.10
2022-09-28T03:57:20.866Z,1.87
2022-09-28T03:59:51.199Z,1.50
2022-09-28T04:02:21.226Z,1.47
2022-09-28T04:04:53.834Z,2.30
2022-09-28T04:07:26.937Z,1.73
2022-09-28T04:10:00.250Z,1.30
2022-09-28T04:12:30.275Z,1.80
2022-09-28T04:15:00.281Z,1.97
2022-09-28T04:17:30.313Z,1.77
2022-09-28T04:20:03.498Z,1.43
2022-09-28T04:23:02.462Z,2.13
2022-09-28T04:25:32.822Z,1.70
2022-09-28T04:28:15.290Z,2.57
2022-09-28T04:30:45.290Z,2.10
2022-09-28T04:33:15.259Z,2.80
2022-09-28T04:35:47.971Z,2.70
2022-09-28T04:38:30.692Z,3.00
2022-09-28T04:41:08.447Z,2.20
2022-09-28T04:43:38.486Z,2.27
2022-09-28T04:46:08.955Z,2.20
2022-09-28T04:48:45.776Z,1.93
2022-09-28T04:51:36.896Z,1.93
2022-09-28T04:54:07.134Z,1.93
2022-09-28T04:56:37.100Z,1.70
2022-09-28T04:59:07.385Z,1.77
2022-09-28T05:01:39.078Z,3.17
2022-09-28T05:04:26.186Z,1.77
2022-09-28T05:07:17.286Z,1.63
2022-09-28T05:09:47.189Z,1.83
2022-09-28T05:12:18.263Z,1.67
2022-09-28T05:14:48.208Z,1.73
2022-09-28T05:17:19.009Z,2.23
2022-09-28T05:20:02.962Z,1.97
2022-09-28T05:22:36.198Z,1.70
2022-09-28T05:25:09.103Z,1.50
2022-09-28T05:27:50.379Z,1.50
2022-09-28T05:30:34.145Z,2.07
2022-09-28T05:33:25.917Z,10.00
2022-09-28T05:36:14.101Z,2.57
2022-09-28T05:38:48.678Z,1.80
2022-09-28T05:41:18.667Z,2.27
2022-09-28T05:43:48.801Z,1.87
2022-09-28T05:46:20.291Z,2.40
2022-09-28T05:48:51.258Z,2.10
2022-09-28T05:51:21.488Z,2.27
2022-09-28T05:54:00.671Z,2.20
2022-09-28T05:56:33.775Z,2.53
2022-09-28T05:59:06.342Z,3.07
2022-09-28T06:01:36.468Z,2.30
2022-09-28T06:04:10.217Z,2.40
2022-09-28T06:06:40.442Z,2.70
2022-09-28T06:09:13.227Z,3.07
2022-09-28T06:12:04.131Z,3.20
2022-09-28T06:14:47.322Z,3.37
2022-09-28T06:17:17.301Z,2.27
2022-09-28T06:19:53.257Z,4.07
2022-09-28T06:22:33.814Z,2.00
2022-09-28T06:25:13.327Z,2.57
2022-09-28T06:27:43.285Z,2.10
2022-09-28T06:30:15.203Z,2.33
2022-09-28T06:32:45.215Z,2.57
2022-09-28T06:35:15.529Z,2.37
2022-09-28T06:37:47.873Z,2.70
2022-09-28T06:40:21.546Z,2.10
2022-09-28T06:42:58.753Z,2.87
2022-09-28T06:45:55.048Z,3.00
2022-09-28T06:48:45.058Z,2.40
2022-09-28T06:51:18.733Z,2.30
2022-09-28T06:54:00.499Z,2.50
2022-09-28T06:56:46.416Z,4.53
2022-09-28T06:59:16.742Z,2.27
2022-09-28T07:01:46.860Z,2.10
2022-09-28T07:04:31.243Z,2.30
2022-09-28T07:07:36.040Z,2.30
2022-09-28T07:10:22.003Z,1.83
2022-09-28T07:13:36.950Z,2.17
2022-09-28T07:16:10.479Z,2.60
2022-09-28T07:18:40.533Z,2.90
2022-09-28T07:21:21.372Z,2.80
2022-09-28T07:23:54.933Z,2.77
2022-09-28T07:26:28.418Z,2.43
2022-09-28T07:29:11.009Z,3.60
2022-09-28T07:31:47.209Z,2.93
2022-09-28T07:34:29.926Z,3.20
2022-09-28T07:37:24.223Z,2.67
2022-09-28T07:40:06.709Z,2.77
2022-09-28T07:42:40.065Z,3.70
2022-09-28T07:45:13.795Z,3.27
2022-09-28T07:47:43.773Z,2.97
2022-09-28T07:50:32.005Z,3.03
2022-09-28T07:53:31.032Z,3.97
2022-09-28T07:56:17.242Z,3.03
2022-09-28T07:58:56.710Z,2.30
2022-09-28T08:01:49.522Z,3.57
2022-09-28T08:04:20.636Z,3.80
2022-09-28T08:06:50.612Z,3.53
2022-09-28T08:09:21.874Z,3.60
2022-09-28T08:12:15.709Z,3.13
2022-09-28T08:15:15.542Z,3.17
2022-09-28T08:18:02.653Z,3.50
2022-09-28T08:20:49.374Z,3.80
2022-09-28T08:23:23.640Z,2.83
2022-09-28T08:25:55.700Z,3.40
2022-09-28T08:28:27.521Z,2.97
2022-09-28T08:31:04.702Z,2.97
2022-09-28T08:33:38.493Z,3.80
2022-09-28T08:36:28.356Z,3.10
2022-09-28T08:39:04.353Z,3.93
2022-09-28T08:42:05.354Z,4.53
2022-09-28T08:44:59.849Z,2.70
2022-09-28T08:48:39.594Z,2.53
2022-09-28T08:51:38.594Z,2.90
2022-09-28T08:54:40.297Z,2.50
2022-09-28T08:57:23.742Z,2.90
2022-09-28T08:59:56.979Z,3.20
2022-09-28T09:02:36.808Z,2.60
2022-09-28T09:05:20.617Z,3.70
2022-09-28T09:08:32.651Z,3.03
2022-09-28T09:11:18.080Z,3.10
2022-09-28T09:14:20.998Z,2.80
2022-09-28T09:17:02.548Z,2.83
2022-09-28T09:19:57.577Z,3.90
2022-09-28T09:23:02.386Z,2.63
2022-09-28T09:25:44.274Z,2.50
2022-09-28T09:28:43.971Z,3.60
2022-09-28T09:31:36.237Z,2.80
2022-09-28T09:34:59.198Z,2.60
2022-09-28T09:38:35.878Z,2.20
2022-09-28T09:42:07.693Z,3.13
2022-09-28T09:45:15.751Z,2.70
2022-09-28T09:48:21.845Z,3.03
2022-09-28T09:50:58.634Z,2.30
2022-09-28T09:53:38.392Z,2.20
2022-09-28T09:56:20.768Z,2.40
2022-09-28T09:59:28.790Z,3.17
2022-09-28T10:02:15.195Z,2.90
2022-09-28T10:05:00.206Z,2.50
2022-09-28T10:07:44.857Z,2.37
2022-09-28T10:10:23.270Z,2.33
2022-09-28T10:12:57.208Z,3.17
2022-09-28T10:15:33.308Z,2.60
2022-09-28T10:18:16.962Z,3.10
2022-09-28T10:21:06.088Z,2.67
2022-09-28T10:23:58.453Z,2.63
2022-09-28T10:26:40.123Z,2.90
2022-09-28T10:29:19.371Z,2.33
2022-09-28T10:31:54.113Z,2.73
2022-09-28T10:34:35.606Z,2.87
2022-09-28T10:37:14.653Z,3.10
2022-09-28T10:40:43.919Z,2.50
2022-09-28T10:43:25.664Z,2.07
2022-09-28T10:46:10.906Z,2.93
2022-09-28T10:48:55.043Z,2.10
2022-09-28T10:51:44.191Z,2.70
2022-09-28T10:54:22.801Z,2.50
2022-09-28T10:56:56.703Z,2.27
2022-09-28T10:59:46.898Z,2.60
2022-09-28T11:02:45.984Z,2.57
2022-09-28T11:05:30.145Z,2.73
2022-09-28T11:08:09.892Z,2.60
2022-09-28T11:10:49.074Z,2.20
2022-09-28T11:13:19.491Z,2.80
2022-09-28T11:15:59.856Z,2.13
2022-09-28T11:18:37.926Z,2.30
2022-09-28T11:21:20.641Z,2.40
2022-09-28T11:24:02.202Z,2.60
2022-09-28T11:26:42.446Z,2.53
2022-09-28T11:29:27.322Z,2.40
2022-09-28T11:32:16.777Z,2.77
2022-09-28T11:35:27.486Z,2.63
2022-09-28T11:38:26.292Z,2.73
2022-09-28T11:41:44.747Z,2.60
2022-09-28T11:44:39.968Z,2.37
2022-09-28T11:48:00.649Z,2.57
2022-09-28T11:50:46.132Z,1.90
2022-09-28T11:53:31.000Z,2.37
2022-09-28T11:56:20.121Z,2.77
2022-09-28T11:58:56.599Z,2.23
2022-09-28T12:01:45.270Z,1.70
2022-09-28T12:04:39.402Z,2.03
2022-09-28T12:07:23.577Z,2.13
2022-09-28T12:10:08.204Z,2.27
2022-09-28T12:12:47.709Z,2.50
2022-09-28T12:15:24.010Z,2.03
2022-09-28T12:18:03.758Z,2.10
2022-09-28T12:20:41.207Z,1.97
2022-09-28T12:23:19.484Z,1.63
2022-09-28T12:26:00.755Z,1.93
2022-09-28T12:28:41.361Z,2.37
2022-09-28T12:31:20.555Z,1.85
2022-09-28T12:33:54.830Z,2.20
2022-09-28T12:36:43.893Z,2.23
2022-09-28T12:39:56.988Z,1.70
2022-09-28T12:42:58.728Z,1.53
2022-09-28T12:46:11.157Z,1.77
2022-09-28T12:52:12.298Z,1.60
2022-09-28T12:55:12.493Z,2.00
2022-09-28T12:58:01.538Z,2.20
2022-09-28T13:00:44.172Z,1.40
2022-09-28T13:03:42.576Z,1.63
2022-09-28T13:06:39.394Z,1.97
2022-09-28T13:09:23.923Z,1.77
2022-09-28T13:12:20.307Z,1.70
2022-09-28T13:15:29.128Z,1.80
2022-09-28T13:18:10.389Z,2.00
2022-09-28T13:21:06.490Z,1.80
2022-09-28T13:23:44.052Z,1.80
2022-09-28T13:26:28.144Z,1.83
2022-09-28T13:29:04.857Z,1.87
2022-09-28T13:31:41.941Z,1.70
2022-09-28T13:34:22.504Z,1.70
2022-09-28T13:37:14.540Z,1.97
2022-09-28T13:39:56.380Z,1.50
2022-09-28T13:42:53.479Z,2.20
2022-09-28T13:45:56.898Z,1.47
2022-09-28T13:48:48.681Z,1.43
2022-09-28T13:51:41.396Z,1.50
2022-09-28T13:54:52.609Z,1.87
2022-09-28T13:57:32.136Z,1.70
2022-09-28T14:00:18.449Z,1.90
2022-09-28T14:02:54.680Z,2.20
2022-09-28T14:06:23.928Z,1.60
2022-09-28T14:09:25.222Z,1.77
2022-09-28T14:12:01.826Z,1.70
2022-09-28T14:14:49.881Z,1.43
2022-09-28T14:17:55.720Z,1.80
2022-09-28T14:20:29.826Z,1.50
2022-09-28T14:23:59.118Z,1.77
2022-09-28T14:27:13.376Z,1.93
2022-09-28T14:29:43.920Z,1.30
2022-09-28T14:32:37.501Z,1.97
2022-09-28T14:35:18.839Z,2.07
2022-09-28T14:38:05.664Z,2.00
2022-09-28T14:41:13.767Z,1.70
2022-09-28T14:44:05.285Z,2.30
2022-09-28T14:46:45.717Z,1.90
2022-09-28T14:50:03.216Z,2.33
2022-09-28T14:52:49.300Z,2.27
2022-09-28T14:55:29.109Z,2.63
2022-09-28T14:58:02.641Z,2.30
2022-09-28T15:00:33.218Z,2.57
2022-09-28T15:03:11.520Z,1.50
2022-09-28T15:05:47.728Z,2.57
2022-09-28T15:08:18.791Z,2.37
2022-09-28T15:10:51.549Z,1.97
2022-09-28T15:13:30.250Z,2.30
2022-09-28T15:16:10.228Z,2.20
2022-09-28T15:19:19.525Z,2.13
2022-09-28T15:21:51.137Z,1.87
2022-09-28T15:24:34.314Z,1.73
2022-09-28T15:27:20.236Z,1.40
2022-09-28T15:30:02.467Z,1.60
2022-09-28T15:32:33.121Z,1.97
2022-09-28T15:35:17.400Z,1.67
2022-09-28T15:37:49.906Z,2.90
2022-09-28T15:40:25.515Z,2.30
2022-09-28T15:42:59.089Z,2.30
2022-09-28T15:45:38.462Z,1.63
2022-09-28T15:48:29.116Z,2.33
2022-09-28T15:51:10.239Z,2.40
2022-09-28T15:53:49.826Z,1.93
2022-09-28T15:56:19.945Z,2.90
2022-09-28T15:59:21.155Z,2.00
2022-09-28T16:02:12.675Z,2.03
2022-09-28T16:04:51.639Z,1.50
2022-09-28T16:07:34.509Z,3.27
2022-09-28T16:10:30.438Z,2.97
2022-09-28T16:13:17.905Z,2.83
2022-09-28T16:15:49.683Z,3.20
2022-09-28T16:18:25.531Z,3.20
2022-09-28T16:20:58.888Z,3.47
2022-09-28T16:23:34.308Z,3.60
2022-09-28T16:26:08.557Z,3.70
2022-09-28T16:28:54.941Z,4.57
2022-09-28T16:31:41.523Z,5.40
2022-09-28T16:34:22.510Z,4.80
2022-09-28T16:36:53.401Z,4.40
2022-09-28T16:39:23.362Z,7.60
2022-09-28T16:41:58.538Z,6.40
2022-09-28T16:44:34.494Z,4.20
2022-09-28T16:47:04.612Z,3.50
2022-09-28T16:49:34.642Z,3.53
2022-09-28T16:52:05.158Z,3.90
2022-09-28T16:54:47.621Z,3.03
2022-09-28T16:57:18.574Z,5.50
2022-09-28T16:59:51.065Z,8.17
2022-09-28T17:02:45.901Z,5.13
2022-09-28T17:05:19.403Z,5.63
2022-09-28T17:07:51.555Z,4.20
2022-09-28T17:10:31.611Z,3.73
2022-09-28T17:13:01.803Z,5.33
2022-09-28T17:15:35.542Z,12.87
2022-09-28T17:18:06.120Z,8.20
2022-09-28T17:20:38.716Z,6.17
2022-09-28T17:23:08.677Z,7.70
2022-09-28T17:25:40.474Z,6.63
2022-09-28T17:28:21.825Z,5.30
2022-09-28T17:30:55.023Z,5.90
2022-09-28T17:33:25.230Z,6.53
2022-09-28T17:36:01.495Z,7.50
2022-09-28T17:38:32.094Z,5.97
2022-09-28T17:41:02.143Z,6.70
2022-09-28T17:43:32.198Z,6.80
2022-09-28T17:46:05.633Z,6.40
2022-09-28T17:48:35.858Z,8.03
2022-09-28T17:51:06.001Z,7.00
2022-09-28T17:53:36.045Z,7.27
2022-09-28T17:56:06.041Z,5.10
2022-09-28T17:58:36.067Z,6.60
2022-09-28T18:01:08.911Z,6.97
2022-09-28T18:03:40.477Z,7.30
2022-09-28T18:06:16.304Z,7.43
2022-09-28T18:08:46.859Z,7.80
2022-09-28T18:11:17.415Z,8.63
2022-09-28T18:13:47.687Z,8.00
2022-09-28T18:16:22.722Z,7.60
2022-09-28T18:18:52.775Z,8.57
2022-09-28T18:21:22.848Z,7.87
2022-09-28T18:23:52.961Z,8.40
2022-09-28T18:26:23.175Z,7.40
2022-09-28T18:28:58.050Z,8.50
2022-09-28T18:31:30.681Z,6.20
2022-09-28T18:34:02.969Z,8.10
2022-09-28T18:36:35.635Z,8.07
2022-09-28T18:39:06.239Z,8.97
2022-09-28T18:41:36.274Z,7.80
2022-09-28T18:44:06.380Z,8.10
2022-09-28T18:46:39.267Z,8.90
2022-09-28T18:49:09.564Z,8.63
2022-09-28T18:51:39.611Z,7.90
2022-09-28T18:54:09.774Z,9.10
2022-09-28T18:56:40.080Z,9.13
2022-09-28T18:59:12.622Z,10.47
2022-09-28T19:01:45.391Z,13.07
2022-09-28T19:04:15.691Z,13.03
2022-09-28T19:06:50.432Z,9.00
2022-09-28T19:09:24.600Z,8.70
2022-09-28T19:11:54.927Z,8.70
2022-09-28T19:14:25.212Z,9.43
2022-09-28T19:16:57.830Z,9.23
2022-09-28T19:19:29.207Z,9.73
2022-09-28T19:21:59.290Z,11.90
2022-09-28T19:24:29.671Z,10.80
2022-09-28T19:27:00.072Z,11.13
2022-09-28T19:29:30.337Z,11.73
2022-09-28T19:32:03.058Z,11.10
2022-09-28T19:34:33.322Z,9.00
2022-09-28T19:37:04.060Z,9.00
2022-09-28T19:39:34.670Z,10.80
2022-09-28T19:42:04.751Z,9.03
2022-09-28T19:44:37.403Z,10.07
2022-09-28T19:47:13.111Z,9.33
2022-09-28T19:49:44.359Z,9.23
2022-09-28T19:52:18.021Z,8.30
2022-09-28T19:54:52.235Z,10.07
2022-09-28T19:57:22.680Z,10.17
2022-09-28T19:59:54.368Z,14.87
2022-09-28T20:02:29.637Z,10.90
2022-09-28T20:04:59.976Z,11.00
2022-09-28T20:07:32.995Z,12.90
2022-09-28T20:10:03.173Z,12.17
2022-09-28T20:12:33.183Z,12.40
2022-09-28T20:15:03.515Z,12.47
2022-09-28T20:17:38.042Z,13.40
2022-09-28T20:20:09.053Z,11.40
2022-09-28T20:22:39.061Z,9.90
2022-09-28T20:25:10.327Z,12.40
2022-09-28T20:27:40.490Z,10.47
2022-09-28T20:30:13.925Z,10.87
2022-09-28T20:32:49.572Z,10.30
2022-09-28T20:35:32.638Z,12.77
2022-09-28T20:38:08.047Z,11.73
2022-09-28T20:40:38.571Z,10.30
2022-09-28T20:43:09.599Z,10.97
2022-09-28T20:45:40.390Z,13.30
2022-09-28T20:48:13.222Z,11.37
2022-09-28T20:50:44.186Z,11.47
2022-09-28T20:53:14.264Z,11.33
2022-09-28T20:55:44.465Z,10.20
2022-09-28T20:58:15.952Z,9.93
2022-09-28T21:00:47.590Z,10.20
2022-09-28T21:03:20.645Z,11.97
2022-09-28T21:05:53.784Z,10.73
2022-09-28T21:08:25.799Z,14.13
2022-09-28T21:10:56.561Z,12.47
2022-09-28T21:13:28.552Z,9.90
2022-09-28T21:16:03.509Z,10.30
2022-09-28T21:18:36.304Z,8.13
2022-09-28T21:21:09.880Z,8.97
2022-09-28T21:23:40.197Z,10.33
2022-09-28T21:26:14.212Z,11.30
2022-09-28T21:28:46.053Z,12.50
2022-09-28T21:31:17.238Z,12.20
2022-09-28T21:33:50.148Z,9.90
2022-09-28T21:36:20.945Z,10.87
2022-09-28T21:38:51.050Z,11.00
2022-09-28T21:41:23.042Z,10.20
2022-09-28T21:43:53.265Z,9.77
2022-09-28T21:46:23.379Z,10.03
2022-09-28T21:48:58.741Z,10.70
2022-09-28T21:51:29.059Z,10.43
2022-09-28T21:53:59.676Z,9.77
2022-09-28T21:56:29.851Z,9.40
2022-09-28T21:59:01.322Z,9.63
2022-09-28T22:01:31.918Z,8.37
2022-09-28T22:04:04.838Z,11.43
2022-09-28T22:06:35.600Z,11.83
2022-09-28T22:09:05.900Z,11.33
2022-09-28T22:11:36.109Z,10.10
2022-09-28T22:14:06.439Z,9.03
2022-09-28T22:16:36.572Z,8.60
2022-09-28T22:19:09.503Z,8.83
2022-09-28T22:21:39.895Z,9.60
2022-09-28T22:24:10.537Z,9.23
2022-09-28T22:26:42.234Z,8.10
2022-09-28T22:29:13.002Z,8.23
2022-09-28T22:31:44.368Z,8.13
2022-09-28T22:34:17.203Z,8.57
2022-09-28T22:36:47.303Z,7.60
2022-09-28T22:39:17.390Z,8.30
2022-09-28T22:41:47.741Z,8.17
2022-09-28T22:44:18.563Z,8.03
2022-09-28T22:46:49.249Z,8.30
2022-09-28T22:49:22.298Z,8.50
2022-09-28T22:51:52.491Z,8.57
2022-09-28T22:54:22.511Z,9.47
2022-09-28T22:56:52.621Z,9.17
2022-09-28T22:59:22.692Z,10.70
2022-09-28T23:01:53.043Z,9.80
2022-09-28T23:04:25.867Z,8.40
2022-09-28T23:06:56.249Z,7.90
2022-09-28T23:09:26.368Z,9.20
2022-09-28T23:11:56.356Z,9.83
2022-09-28T23:14:26.394Z,7.83
2022-09-28T23:16:56.451Z,6.80
2022-09-28T23:19:29.611Z,8.73
2022-09-28T23:21:59.740Z,8.80
2022-09-28T23:24:30.658Z,9.33
2022-09-28T23:27:00.630Z,8.37
2022-09-28T23:29:30.880Z,8.90
2022-09-28T23:32:00.865Z,8.57
2022-09-28T23:34:33.544Z,8.77
2022-09-28T23:37:03.702Z,8.10
2022-09-28T23:39:33.872Z,9.63
2022-09-28T23:42:04.578Z,11.30
2022-09-28T23:44:34.693Z,10.30
2022-09-28T23:47:04.707Z,10.43
2022-09-28T23:49:37.458Z,10.80
2022-09-28T23:52:07.560Z,10.13
2022-09-28T23:54:38.091Z,10.03
2022-09-28T23:57:08.230Z,9.40
2022-09-28T23:59:38.758Z,10.90
